Terminal Aerodrome Forecast
Issued by NWS Duluth, MN

Home | Current Version | Previous Version | Text Only | Print | Product List | Glossary On
Versions: 1 2 3 4 5 6 7 8 9 10 11 12 13 14 15 16 17 18 19 20 21 22 23 24 25 26 27 28 29 30 31 32 33 34 35 36 37 38 39 40
000
FTUS43 KDLH 201700
TAFDLH
TAF
KDLH 201728Z 2018/2118 30012KT P6SM SCT020
      TEMPO 2019/2021 BKN025
     FM202300 26006KT 6SM -TSRA SCT015CB BKN030CB
     FM210300 30008KT 6SM -RA BR OVC020
     FM210600 33008KT 5SM -RA BR OVC015
     FM210900 33007KT 6SM BR OVC010
     FM211600 33009KT P6SM BKN018=

USA.gov is the U.S. government's official web portal to all federal, state and local government web resources and services.